Time;durP1;ratioP1;P1;durP2;ratioP2;P2;SDS_P1;SDS_P2;PMS_P1;PMS_P2;Temp;Humidity;BMP_temperature;BMP_pressure;BME280_temperature;BME280_humidity;BME280_pressure;Samples;Min_cycle;Max_cycle;Signal;HPM_P1;HPM_P2
2023/08/13 00:00:25;;;;;;;0.00;0.00;;;;;;;;;;1730593;28;20459;-76
2023/08/13 00:01:16;;;;;;;0.00;0.00;;;;;;;;;;1733104;28;20318;-76
2023/08/13 00:02:08;;;;;;;0.00;0.00;;;;;;;;;;1732080;28;20204;-76
2023/08/13 00:02:59;;;;;;;0.00;0.00;;;;;;;;;;1733727;28;20671;-76
2023/08/13 00:03:50;;;;;;;0.00;0.00;;;;;;;;;;1734993;28;21221;-76
2023/08/13 00:04:42;;;;;;;0.00;0.00;;;;;;;;;;1734327;28;20285;-76
2023/08/13 00:05:34;;;;;;;0.00;0.00;;;;;;;;;;1731857;28;20394;-76
2023/08/13 00:06:25;;;;;;;0.00;0.00;;;;;;;;;;1733828;28;20204;-76
2023/08/13 00:07:18;;;;;;;0.00;0.00;;;;;;;;;;1732379;28;20231;-76
2023/08/13 00:08:09;;;;;;;0.00;0.00;;;;;;;;;;1733435;28;20604;-76
2023/08/13 00:09:02;;;;;;;0.00;0.00;;;;;;;;;;1732721;28;20211;-76
2023/08/13 00:09:53;;;;;;;0.00;0.00;;;;;;;;;;1733369;28;20208;-76
2023/08/13 00:10:44;;;;;;;0.00;0.00;;;;;;;;;;1731965;28;20607;-76
2023/08/13 00:11:36;;;;;;;0.00;0.00;;;;;;;;;;1733286;28;20195;-76
2023/08/13 00:12:27;;;;;;;0.00;0.00;;;;;;;;;;1732325;28;20200;-76
2023/08/13 00:13:18;;;;;;;0.00;0.00;;;;;;;;;;1733360;28;20242;-76
2023/08/13 00:14:10;;;;;;;0.00;0.00;;;;;;;;;;1732287;28;20212;-76
2023/08/13 00:15:04;;;;;;;0.00;0.00;;;;;;;;;;1733282;28;20346;-76
2023/08/13 00:15:56;;;;;;;0.00;0.00;;;;;;;;;;1730527;28;20247;-76
2023/08/13 00:16:47;;;;;;;0.00;0.00;;;;;;;;;;1733070;28;20656;-76
2023/08/13 00:17:39;;;;;;;0.00;0.00;;;;;;;;;;1732855;28;20232;-76
2023/08/13 00:18:32;;;;;;;0.00;0.00;;;;;;;;;;1732977;28;20199;-76
2023/08/13 00:19:23;;;;;;;0.00;0.00;;;;;;;;;;1732358;28;20204;-75
2023/08/13 00:20:15;;;;;;;0.00;0.00;;;;;;;;;;1732523;28;20269;-76
2023/08/13 00:21:06;;;;;;;0.00;0.00;;;;;;;;;;1731817;28;20323;-76
2023/08/13 00:21:57;;;;;;;0.00;0.00;;;;;;;;;;1732186;28;20606;-76
2023/08/13 00:22:50;;;;;;;0.00;0.00;;;;;;;;;;1733396;28;20294;-76
2023/08/13 00:23:41;;;;;;;0.00;0.00;;;;;;;;;;1732310;28;20246;-76
2023/08/13 00:24:32;;;;;;;0.00;0.00;;;;;;;;;;1733089;28;20207;-76
2023/08/13 00:25:24;;;;;;;0.00;0.00;;;;;;;;;;1731700;28;20199;-76
2023/08/13 00:26:15;;;;;;;0.00;0.00;;;;;;;;;;1732703;28;20586;-75
2023/08/13 00:27:06;;;;;;;0.00;0.00;;;;;;;;;;1732617;28;20243;-75
2023/08/13 00:27:58;;;;;;;0.00;0.00;;;;;;;;;;1733325;28;20571;-75
2023/08/13 00:28:49;;;;;;;0.00;0.00;;;;;;;;;;1732893;28;20763;-75
2023/08/13 00:29:41;;;;;;;0.00;0.00;;;;;;;;;;1733303;28;20235;-75
2023/08/13 00:30:32;;;;;;;0.00;0.00;;;;;;;;;;1730192;28;20781;-76
2023/08/13 00:31:23;;;;;;;0.00;0.00;;;;;;;;;;1733307;28;20215;-76
2023/08/13 00:32:15;;;;;;;0.00;0.00;;;;;;;;;;1732440;28;20232;-76
2023/08/13 00:33:06;;;;;;;0.00;0.00;;;;;;;;;;1733414;28;20254;-76
2023/08/13 00:33:58;;;;;;;0.00;0.00;;;;;;;;;;1732793;28;20269;-76
2023/08/13 00:34:50;;;;;;;0.00;0.00;;;;;;;;;;1733355;28;20294;-76
2023/08/13 00:35:41;;;;;;;0.00;0.00;;;;;;;;;;1731790;28;20266;-76
2023/08/13 00:36:33;;;;;;;0.00;0.00;;;;;;;;;;1732967;28;20649;-76
2023/08/13 00:37:24;;;;;;;0.00;0.00;;;;;;;;;;1732694;28;20655;-76
2023/08/13 00:38:16;;;;;;;0.00;0.00;;;;;;;;;;1733324;28;20306;-76
2023/08/13 00:39:08;;;;;;;0.00;0.00;;;;;;;;;;1732379;28;20291;-76
2023/08/13 00:39:59;;;;;;;0.00;0.00;;;;;;;;;;1733676;28;20235;-77
2023/08/13 00:40:51;;;;;;;0.00;0.00;;;;;;;;;;1731779;28;20322;-77
2023/08/13 00:41:42;;;;;;;0.00;0.00;;;;;;;;;;1733439;28;20241;-77
2023/08/13 00:42:34;;;;;;;0.00;0.00;;;;;;;;;;1732557;28;20268;-77
2023/08/13 00:43:25;;;;;;;0.00;0.00;;;;;;;;;;1733418;28;20243;-77
2023/08/13 00:44:17;;;;;;;0.00;0.00;;;;;;;;;;1733033;28;20335;-76
2023/08/13 00:45:09;;;;;;;0.00;0.00;;;;;;;;;;1733663;28;20208;-76
2023/08/13 00:46:01;;;;;;;0.00;0.00;;;;;;;;;;1731879;28;20246;-77
2023/08/13 00:46:52;;;;;;;0.00;0.00;;;;;;;;;;1732777;28;20214;-76
2023/08/13 00:47:45;;;;;;;0.00;0.00;;;;;;;;;;1733092;28;20196;-76
2023/08/13 00:48:37;;;;;;;0.00;0.00;;;;;;;;;;1733124;28;20288;-77
2023/08/13 00:49:28;;;;;;;0.00;0.00;;;;;;;;;;1733280;28;20211;-78
2023/08/13 00:50:21;;;;;;;0.00;0.00;;;;;;;;;;1731854;28;20668;-78
2023/08/13 00:51:14;;;;;;;0.00;0.00;;;;;;;;;;1733251;28;20273;-77
2023/08/13 00:52:07;;;;;;;0.00;0.00;;;;;;;;;;1732400;28;20625;-77
2023/08/13 00:52:58;;;;;;;0.00;0.00;;;;;;;;;;1726534;28;20295;-77
2023/08/13 00:53:50;;;;;;;0.00;0.00;;;;;;;;;;1725876;28;20200;-77
2023/08/13 00:54:42;;;;;;;0.00;0.00;;;;;;;;;;1726605;28;20200;-77
2023/08/13 00:55:34;;;;;;;0.00;0.00;;;;;;;;;;1724693;28;20295;-77
2023/08/13 00:56:25;;;;;;;0.00;0.00;;;;;;;;;;1726666;28;20207;-77
2023/08/13 00:57:17;;;;;;;0.00;0.00;;;;;;;;;;1725923;28;20266;-77
2023/08/13 00:58:08;;;;;;;0.00;0.00;;;;;;;;;;1726693;28;20578;-77
2023/08/13 00:59:00;;;;;;;0.00;0.00;;;;;;;;;;1726038;28;20259;-77
2023/08/13 00:59:51;;;;;;;0.00;0.00;;;;;;;;;;1726347;28;20660;-77
2023/08/13 01:00:43;;;;;;;0.00;0.00;;;;;;;;;;1725318;28;20294;-77
2023/08/13 01:01:35;;;;;;;0.00;0.00;;;;;;;;;;1726091;28;20216;-77
2023/08/13 01:02:26;;;;;;;0.00;0.00;;;;;;;;;;1725766;28;20240;-77
2023/08/13 01:03:18;;;;;;;0.00;0.00;;;;;;;;;;1726314;28;20262;-77
2023/08/13 01:04:09;;;;;;;0.00;0.00;;;;;;;;;;1725280;28;20247;-77
2023/08/13 01:05:03;;;;;;;0.00;0.00;;;;;;;;;;1726420;28;20630;-77
2023/08/13 01:05:59;;;;;;;0.00;0.00;;;;;;;;;;1724622;28;20271;-77
2023/08/13 01:06:56;;;;;;;0.00;0.00;;;;;;;;;;1720044;28;20201;-77
2023/08/13 01:07:52;;;;;;;0.00;0.00;;;;;;;;;;1726269;28;20628;-78
2023/08/13 01:08:48;;;;;;;0.00;0.00;;;;;;;;;;1725880;28;20645;-77
2023/08/13 01:09:44;;;;;;;0.00;0.00;;;;;;;;;;1726592;28;20197;-78
2023/08/13 01:10:36;;;;;;;0.00;0.00;;;;;;;;;;1726531;28;20201;-78
2023/08/13 01:11:32;;;;;;;0.00;0.00;;;;;;;;;;1727211;28;20247;-78
2023/08/13 01:12:28;;;;;;;0.00;0.00;;;;;;;;;;1725602;28;20217;-77
2023/08/13 01:13:22;;;;;;;0.00;0.00;;;;;;;;;;1726282;28;20285;-77
2023/08/13 01:14:21;;;;;;;0.00;0.00;;;;;;;;;;1725497;28;20311;-77
2023/08/13 01:15:15;;;;;;;0.00;0.00;;;;;;;;;;1726186;28;20299;-77
2023/08/13 01:16:07;;;;;;;0.00;0.00;;;;;;;;;;1724520;28;20236;-77
2023/08/13 01:16:58;;;;;;;0.00;0.00;;;;;;;;;;1725506;28;20204;-77
2023/08/13 01:17:52;;;;;;;0.00;0.00;;;;;;;;;;1726625;28;20539;-77
2023/08/13 01:18:44;;;;;;;0.00;0.00;;;;;;;;;;1725482;28;20204;-78
2023/08/13 01:19:37;;;;;;;0.00;0.00;;;;;;;;;;1726417;28;20196;-77
2023/08/13 01:20:29;;;;;;;0.00;0.00;;;;;;;;;;1725421;28;20239;-78
2023/08/13 01:21:20;;;;;;;0.00;0.00;;;;;;;;;;1726393;28;20200;-77
2023/08/13 01:22:12;;;;;;;0.00;0.00;;;;;;;;;;1727515;28;20501;-77
2023/08/13 01:23:05;;;;;;;0.00;0.00;;;;;;;;;;1727196;28;20243;-77
2023/08/13 01:23:56;;;;;;;0.00;0.00;;;;;;;;;;1726191;28;20255;-77
2023/08/13 01:24:48;;;;;;;0.00;0.00;;;;;;;;;;1726382;28;20267;-77
2023/08/13 01:25:42;;;;;;;0.00;0.00;;;;;;;;;;1724741;28;20236;-77
2023/08/13 01:26:36;;;;;;;0.00;0.00;;;;;;;;;;1726185;28;20208;-77
2023/08/13 01:27:29;;;;;;;0.00;0.00;;;;;;;;;;1725956;28;20196;-77
2023/08/13 01:28:23;;;;;;;0.00;0.00;;;;;;;;;;1726688;28;20687;-77
2023/08/13 01:29:17;;;;;;;0.00;0.00;;;;;;;;;;1725648;28;20200;-77
2023/08/13 01:30:10;;;;;;;0.00;0.00;;;;;;;;;;1726396;28;20626;-77
2023/08/13 01:31:06;;;;;;;0.00;0.00;;;;;;;;;;1724468;28;20268;-77
2023/08/13 01:32:01;;;;;;;0.00;0.00;;;;;;;;;;1726017;28;20245;-77
2023/08/13 01:33:02;;;;;;;0.00;0.00;;;;;;;;;;1723154;28;20701;-77
2023/08/13 01:33:53;;;;;;;0.00;0.00;;;;;;;;;;1722946;28;20287;-77
2023/08/13 01:34:46;;;;;;;0.00;0.00;;;;;;;;;;1726245;28;20201;-77
2023/08/13 01:35:38;;;;;;;0.00;0.00;;;;;;;;;;1727521;28;20315;-77
2023/08/13 01:36:31;;;;;;;0.00;0.00;;;;;;;;;;1729198;28;20271;-77
2023/08/13 01:37:23;;;;;;;0.00;0.00;;;;;;;;;;1725869;28;20710;-77
2023/08/13 01:38:17;;;;;;;0.00;0.00;;;;;;;;;;1726401;28;20231;-77
2023/08/13 01:39:08;;;;;;;0.00;0.00;;;;;;;;;;1726200;28;20232;-77
2023/08/13 01:39:59;;;;;;;0.00;0.00;;;;;;;;;;1726566;28;20700;-77
2023/08/13 01:40:51;;;;;;;0.00;0.00;;;;;;;;;;1724876;28;20232;-77
2023/08/13 01:41:45;;;;;;;0.00;0.00;;;;;;;;;;1726028;28;20314;-77
2023/08/13 01:42:37;;;;;;;0.00;0.00;;;;;;;;;;1726192;28;20223;-77
2023/08/13 01:43:28;;;;;;;0.00;0.00;;;;;;;;;;1725943;28;20212;-77
2023/08/13 01:44:20;;;;;;;0.00;0.00;;;;;;;;;;1725972;28;20597;-77
2023/08/13 01:45:11;;;;;;;0.00;0.00;;;;;;;;;;1726441;28;20764;-77
2023/08/13 01:46:02;;;;;;;0.00;0.00;;;;;;;;;;1726276;28;20692;-78
2023/08/13 01:46:54;;;;;;;0.00;0.00;;;;;;;;;;1726253;28;20548;-78
2023/08/13 01:47:46;;;;;;;0.00;0.00;;;;;;;;;;1722621;28;20296;-78
2023/08/13 01:48:38;;;;;;;0.00;0.00;;;;;;;;;;1726445;28;20271;-78
2023/08/13 01:49:29;;;;;;;0.00;0.00;;;;;;;;;;1726333;28;20606;-78
2023/08/13 01:50:20;;;;;;;0.00;0.00;;;;;;;;;;1725609;28;20291;-78
2023/08/13 01:51:12;;;;;;;0.00;0.00;;;;;;;;;;1726522;28;20197;-78
2023/08/13 01:52:03;;;;;;;0.00;0.00;;;;;;;;;;1725488;28;20304;-78
2023/08/13 01:52:55;;;;;;;0.00;0.00;;;;;;;;;;1733304;28;20228;-78
2023/08/13 01:53:48;;;;;;;0.00;0.00;;;;;;;;;;1732779;28;20222;-78
2023/08/13 01:54:39;;;;;;;0.00;0.00;;;;;;;;;;1733288;28;20242;-78
2023/08/13 01:55:31;;;;;;;0.00;0.00;;;;;;;;;;1731475;28;20299;-78
2023/08/13 01:56:22;;;;;;;0.00;0.00;;;;;;;;;;1733124;28;20233;-77
2023/08/13 01:57:14;;;;;;;0.00;0.00;;;;;;;;;;1732558;28;20620;-77
2023/08/13 01:58:05;;;;;;;0.00;0.00;;;;;;;;;;1732680;28;20783;-77
2023/08/13 01:58:56;;;;;;;0.00;0.00;;;;;;;;;;1732603;28;20629;-77
2023/08/13 01:59:48;;;;;;;0.00;0.00;;;;;;;;;;1732383;28;20211;-77
2023/08/13 02:00:39;;;;;;;0.00;0.00;;;;;;;;;;1730925;28;20938;-77
2023/08/13 02:01:31;;;;;;;0.00;0.00;;;;;;;;;;1732507;28;20294;-77
2023/08/13 02:02:22;;;;;;;0.00;0.00;;;;;;;;;;1733211;28;20218;-78
2023/08/13 02:03:14;;;;;;;0.00;0.00;;;;;;;;;;1733116;28;20529;-78
2023/08/13 02:04:06;;;;;;;0.00;0.00;;;;;;;;;;1732447;28;20286;-78
2023/08/13 02:04:58;;;;;;;0.00;0.00;;;;;;;;;;1733420;28;20680;-78
2023/08/13 02:05:49;;;;;;;0.00;0.00;;;;;;;;;;1731536;28;20266;-78
2023/08/13 02:06:40;;;;;;;0.00;0.00;;;;;;;;;;1733119;28;20294;-78
2023/08/13 02:07:32;;;;;;;0.00;0.00;;;;;;;;;;1732546;28;20628;-78
2023/08/13 02:08:23;;;;;;;0.00;0.00;;;;;;;;;;1733092;28;20617;-78
2023/08/13 02:09:16;;;;;;;0.00;0.00;;;;;;;;;;1732162;28;20211;-78
2023/08/13 02:10:07;;;;;;;0.00;0.00;;;;;;;;;;1733395;28;20303;-78
2023/08/13 02:10:59;;;;;;;0.00;0.00;;;;;;;;;;1732648;28;20312;-78
2023/08/13 02:11:51;;;;;;;0.00;0.00;;;;;;;;;;1732938;28;20203;-78
2023/08/13 02:12:42;;;;;;;0.00;0.00;;;;;;;;;;1733196;28;20287;-78
2023/08/13 02:13:33;;;;;;;0.00;0.00;;;;;;;;;;1733291;28;20234;-78
2023/08/13 02:14:25;;;;;;;0.00;0.00;;;;;;;;;;1733271;28;20227;-78
2023/08/13 02:15:16;;;;;;;0.00;0.00;;;;;;;;;;1732727;28;20219;-78
2023/08/13 02:16:08;;;;;;;0.00;0.00;;;;;;;;;;1732166;28;21037;-78
2023/08/13 02:16:59;;;;;;;0.00;0.00;;;;;;;;;;1732728;28;20207;-78
2023/08/13 02:17:50;;;;;;;0.00;0.00;;;;;;;;;;1733445;28;20282;-78
2023/08/13 02:18:42;;;;;;;0.00;0.00;;;;;;;;;;1732434;28;20997;-78
2023/08/13 02:19:33;;;;;;;0.00;0.00;;;;;;;;;;1733284;28;20301;-78
2023/08/13 02:20:25;;;;;;;0.00;0.00;;;;;;;;;;1731779;28;20705;-78
2023/08/13 02:21:18;;;;;;;0.00;0.00;;;;;;;;;;1733247;28;20311;-78
2023/08/13 02:22:10;;;;;;;0.00;0.00;;;;;;;;;;1732934;28;20243;-78
2023/08/13 02:23:01;;;;;;;0.00;0.00;;;;;;;;;;1733312;28;20246;-78
2023/08/13 02:23:52;;;;;;;0.00;0.00;;;;;;;;;;1733589;28;20207;-78
2023/08/13 02:24:46;;;;;;;0.00;0.00;;;;;;;;;;1733227;28;20214;-78
2023/08/13 02:25:37;;;;;;;0.00;0.00;;;;;;;;;;1731847;28;20349;-78
2023/08/13 02:26:28;;;;;;;0.00;0.00;;;;;;;;;;1733099;28;20265;-78
2023/08/13 02:27:20;;;;;;;0.00;0.00;;;;;;;;;;1732294;28;20199;-78
2023/08/13 02:28:11;;;;;;;0.00;0.00;;;;;;;;;;1732968;28;20204;-78
2023/08/13 02:29:03;;;;;;;0.00;0.00;;;;;;;;;;1732629;28;20200;-78
2023/08/13 02:29:54;;;;;;;0.00;0.00;;;;;;;;;;1733308;28;20204;-77
2023/08/13 02:30:45;;;;;;;0.00;0.00;;;;;;;;;;1731656;28;20660;-77
2023/08/13 02:31:37;;;;;;;0.00;0.00;;;;;;;;;;1732807;28;20207;-77
2023/08/13 02:32:29;;;;;;;0.00;0.00;;;;;;;;;;1732221;28;20602;-77
2023/08/13 02:33:20;;;;;;;0.00;0.00;;;;;;;;;;1732785;28;20207;-79
2023/08/13 02:34:12;;;;;;;0.00;0.00;;;;;;;;;;1732374;28;20204;-78
2023/08/13 02:35:03;;;;;;;0.00;0.00;;;;;;;;;;1733568;28;20745;-78
2023/08/13 02:35:54;;;;;;;0.00;0.00;;;;;;;;;;1731230;28;20251;-78
2023/08/13 02:36:46;;;;;;;0.00;0.00;;;;;;;;;;1733176;28;20195;-78
2023/08/13 02:37:37;;;;;;;0.00;0.00;;;;;;;;;;1732458;28;20257;-78
2023/08/13 02:38:28;;;;;;;0.00;0.00;;;;;;;;;;1732914;28;20299;-78
2023/08/13 02:39:20;;;;;;;0.00;0.00;;;;;;;;;;1733112;28;20203;-78
2023/08/13 02:40:13;;;;;;;0.00;0.00;;;;;;;;;;1733416;28;20365;-78
2023/08/13 02:41:04;;;;;;;0.00;0.00;;;;;;;;;;1731864;28;20605;-78
2023/08/13 02:41:56;;;;;;;0.00;0.00;;;;;;;;;;1732538;28;20266;-78
2023/08/13 02:42:47;;;;;;;0.00;0.00;;;;;;;;;;1733096;28;20246;-78
2023/08/13 02:43:49;;;;;;;0.00;0.00;;;;;;;;;;1732374;28;20196;-78
2023/08/13 02:44:41;;;;;;;0.00;0.00;;;;;;;;;;1731529;28;20200;-77
2023/08/13 02:45:32;;;;;;;0.00;0.00;;;;;;;;;;1730802;28;20302;-77
2023/08/13 02:46:25;;;;;;;0.00;0.00;;;;;;;;;;1732713;28;20206;-77
2023/08/13 02:47:17;;;;;;;0.00;0.00;;;;;;;;;;1731975;28;20488;-77
2023/08/13 02:48:08;;;;;;;0.00;0.00;;;;;;;;;;1732175;28;20591;-77
2023/08/13 02:49:00;;;;;;;0.00;0.00;;;;;;;;;;1732387;28;20699;-77
2023/08/13 02:49:51;;;;;;;0.00;0.00;;;;;;;;;;1732259;28;20327;-77
2023/08/13 02:50:42;;;;;;;0.00;0.00;;;;;;;;;;1731492;28;20292;-76
2023/08/13 02:51:34;;;;;;;0.00;0.00;;;;;;;;;;1732358;28;20512;-76
2023/08/13 02:52:25;;;;;;;0.00;0.00;;;;;;;;;;1728963;28;20214;-76
2023/08/13 02:53:17;;;;;;;0.00;0.00;;;;;;;;;;1730354;28;20191;-76
2023/08/13 02:54:08;;;;;;;0.00;0.00;;;;;;;;;;1724668;28;20247;-76
2023/08/13 02:55:03;;;;;;;0.00;0.00;;;;;;;;;;1726010;28;20204;-76
2023/08/13 02:55:55;;;;;;;0.00;0.00;;;;;;;;;;1723749;28;20240;-77
2023/08/13 02:56:46;;;;;;;0.00;0.00;;;;;;;;;;1725654;28;20572;-77
2023/08/13 02:57:38;;;;;;;0.00;0.00;;;;;;;;;;1725272;28;20234;-77
2023/08/13 02:58:29;;;;;;;0.00;0.00;;;;;;;;;;1725240;28;20752;-77
2023/08/13 02:59:21;;;;;;;0.00;0.00;;;;;;;;;;1729658;28;20321;-77
2023/08/13 03:00:13;;;;;;;0.00;0.00;;;;;;;;;;1725358;28;20262;-77
2023/08/13 03:01:04;;;;;;;0.00;0.00;;;;;;;;;;1724256;28;20231;-77
2023/08/13 03:01:56;;;;;;;0.00;0.00;;;;;;;;;;1725248;28;20208;-76
2023/08/13 03:02:47;;;;;;;0.00;0.00;;;;;;;;;;1725381;28;20634;-77
2023/08/13 03:03:38;;;;;;;0.00;0.00;;;;;;;;;;1725267;28;20228;-77
2023/08/13 03:04:30;;;;;;;0.00;0.00;;;;;;;;;;1725354;28;20375;-76
2023/08/13 03:05:21;;;;;;;0.00;0.00;;;;;;;;;;1724324;28;20243;-77
2023/08/13 03:06:12;;;;;;;0.00;0.00;;;;;;;;;;1725663;28;20589;-77
2023/08/13 03:07:04;;;;;;;0.00;0.00;;;;;;;;;;1725046;28;20350;-77
2023/08/13 03:07:55;;;;;;;0.00;0.00;;;;;;;;;;1723248;28;20250;-77
2023/08/13 03:08:46;;;;;;;0.00;0.00;;;;;;;;;;1725012;28;20299;-77
2023/08/13 03:09:38;;;;;;;0.00;0.00;;;;;;;;;;1725635;28;20201;-78
2023/08/13 03:10:29;;;;;;;0.00;0.00;;;;;;;;;;1724247;28;20594;-77
2023/08/13 03:11:22;;;;;;;0.00;0.00;;;;;;;;;;1725487;28;20203;-77
2023/08/13 03:12:14;;;;;;;0.00;0.00;;;;;;;;;;1724913;28;20246;-76
2023/08/13 03:13:05;;;;;;;0.00;0.00;;;;;;;;;;1725240;28;20506;-76
2023/08/13 03:13:56;;;;;;;0.00;0.00;;;;;;;;;;1725366;28;20586;-76
2023/08/13 03:14:48;;;;;;;0.00;0.00;;;;;;;;;;1725338;28;20216;-76
2023/08/13 03:15:39;;;;;;;0.00;0.00;;;;;;;;;;1723820;28;20240;-77
2023/08/13 03:16:30;;;;;;;0.00;0.00;;;;;;;;;;1725661;28;20680;-78
2023/08/13 03:17:22;;;;;;;0.00;0.00;;;;;;;;;;1724757;28;20204;-77
2023/08/13 03:18:13;;;;;;;0.00;0.00;;;;;;;;;;1725676;28;20215;-77
2023/08/13 03:19:06;;;;;;;0.00;0.00;;;;;;;;;;1724894;28;20201;-77
2023/08/13 03:19:58;;;;;;;0.00;0.00;;;;;;;;;;1719143;28;20613;-76
2023/08/13 03:20:50;;;;;;;0.00;0.00;;;;;;;;;;1723619;28;20258;-76
2023/08/13 03:21:41;;;;;;;0.00;0.00;;;;;;;;;;1725500;28;20647;-76
2023/08/13 03:22:33;;;;;;;0.00;0.00;;;;;;;;;;1724865;28;20254;-76
2023/08/13 03:23:24;;;;;;;0.00;0.00;;;;;;;;;;1718482;28;20244;-76
2023/08/13 03:24:16;;;;;;;0.00;0.00;;;;;;;;;;1724507;28;20225;-76
2023/08/13 03:25:08;;;;;;;0.00;0.00;;;;;;;;;;1725808;28;20227;-76
2023/08/13 03:25:59;;;;;;;0.00;0.00;;;;;;;;;;1721199;28;20291;-77
2023/08/13 03:26:52;;;;;;;0.00;0.00;;;;;;;;;;1721472;28;20201;-77
2023/08/13 03:27:43;;;;;;;0.00;0.00;;;;;;;;;;1724908;28;20205;-77
2023/08/13 03:28:34;;;;;;;0.00;0.00;;;;;;;;;;1725286;28;20205;-77
2023/08/13 03:29:26;;;;;;;0.00;0.00;;;;;;;;;;1725469;28;20201;-77
2023/08/13 03:30:17;;;;;;;0.00;0.00;;;;;;;;;;1724507;28;20331;-77
2023/08/13 03:31:08;;;;;;;0.00;0.00;;;;;;;;;;1725752;28;20197;-77
2023/08/13 03:32:00;;;;;;;0.00;0.00;;;;;;;;;;1725160;28;20227;-77
2023/08/13 03:32:51;;;;;;;0.00;0.00;;;;;;;;;;1725883;28;20638;-77
2023/08/13 03:33:43;;;;;;;0.00;0.00;;;;;;;;;;1724994;28;20227;-77
2023/08/13 03:34:34;;;;;;;0.00;0.00;;;;;;;;;;1726023;28;20227;-77
2023/08/13 03:35:26;;;;;;;0.00;0.00;;;;;;;;;;1724450;28;20277;-77
2023/08/13 03:36:18;;;;;;;0.00;0.00;;;;;;;;;;1726017;28;20236;-77
2023/08/13 03:37:10;;;;;;;0.00;0.00;;;;;;;;;;1725572;28;20295;-77
2023/08/13 03:38:01;;;;;;;0.00;0.00;;;;;;;;;;1725826;28;20205;-77
2023/08/13 03:38:53;;;;;;;0.00;0.00;;;;;;;;;;1725414;28;20542;-77
2023/08/13 03:39:44;;;;;;;0.00;0.00;;;;;;;;;;1725795;28;20669;-77
2023/08/13 03:40:38;;;;;;;0.00;0.00;;;;;;;;;;1724494;28;20291;-77
2023/08/13 03:41:30;;;;;;;0.00;0.00;;;;;;;;;;1725905;28;20207;-77
2023/08/13 03:42:22;;;;;;;0.00;0.00;;;;;;;;;;1724936;28;20263;-77
2023/08/13 03:43:13;;;;;;;0.00;0.00;;;;;;;;;;1725703;28;20254;-77
2023/08/13 03:44:05;;;;;;;0.00;0.00;;;;;;;;;;1725406;28;20291;-77
2023/08/13 03:44:56;;;;;;;0.00;0.00;;;;;;;;;;1719497;28;20469;-76
2023/08/13 03:45:48;;;;;;;0.10;0.10;;;;;;;;;;1722946;28;20311;-77
2023/08/13 03:46:39;;;;;;;0.00;0.00;;;;;;;;;;1725826;28;20239;-77
2023/08/13 03:47:31;;;;;;;0.00;0.00;;;;;;;;;;1724995;28;20611;-77
2023/08/13 03:48:22;;;;;;;0.00;0.00;;;;;;;;;;1725769;28;20704;-77
2023/08/13 03:49:14;;;;;;;0.00;0.00;;;;;;;;;;1725730;28;20332;-78
2023/08/13 03:50:06;;;;;;;0.00;0.00;;;;;;;;;;1726164;28;20628;-78
2023/08/13 03:50:57;;;;;;;0.00;0.00;;;;;;;;;;1724515;28;20743;-77
2023/08/13 03:51:49;;;;;;;0.00;0.00;;;;;;;;;;1725772;28;20205;-77
2023/08/13 03:52:40;;;;;;;0.00;0.00;;;;;;;;;;1729587;28;20266;-77
2023/08/13 03:53:32;;;;;;;0.00;0.00;;;;;;;;;;1732347;28;20480;-77
2023/08/13 03:54:23;;;;;;;0.00;0.00;;;;;;;;;;1732278;28;20310;-77
2023/08/13 03:55:15;;;;;;;0.00;0.00;;;;;;;;;;1731610;28;20716;-77
2023/08/13 03:56:06;;;;;;;0.00;0.00;;;;;;;;;;1731860;28;20744;-76
2023/08/13 03:56:58;;;;;;;0.00;0.00;;;;;;;;;;1732048;28;20200;-76
2023/08/13 03:57:53;;;;;;;0.00;0.00;;;;;;;;;;1732345;28;20598;-76
2023/08/13 03:58:45;;;;;;;0.00;0.00;;;;;;;;;;1732516;28;20608;-76
2023/08/13 03:59:36;;;;;;;0.00;0.00;;;;;;;;;;1732246;28;20286;-76
2023/08/13 04:00:27;;;;;;;0.00;0.00;;;;;;;;;;1729184;28;20622;-76
2023/08/13 04:01:19;;;;;;;0.00;0.00;;;;;;;;;;1732094;28;20219;-77
2023/08/13 04:02:10;;;;;;;0.00;0.00;;;;;;;;;;1731431;28;20756;-77
2023/08/13 04:03:03;;;;;;;0.00;0.00;;;;;;;;;;1732558;28;20761;-77
2023/08/13 04:03:54;;;;;;;0.00;0.00;;;;;;;;;;1731525;28;20211;-77
2023/08/13 04:04:46;;;;;;;0.00;0.00;;;;;;;;;;1732184;28;20203;-77
2023/08/13 04:05:37;;;;;;;0.00;0.00;;;;;;;;;;1731020;28;20302;-76
2023/08/13 04:06:28;;;;;;;0.00;0.00;;;;;;;;;;1733179;28;20281;-76
2023/08/13 04:07:20;;;;;;;0.00;0.00;;;;;;;;;;1732979;28;20512;-76
2023/08/13 04:08:11;;;;;;;0.00;0.00;;;;;;;;;;1733013;28;20307;-76
2023/08/13 04:09:02;;;;;;;0.00;0.00;;;;;;;;;;1733224;28;20346;-76
2023/08/13 04:09:54;;;;;;;0.00;0.00;;;;;;;;;;1733464;28;20223;-76
2023/08/13 04:10:45;;;;;;;0.00;0.00;;;;;;;;;;1731738;28;20362;-76
2023/08/13 04:11:37;;;;;;;0.00;0.00;;;;;;;;;;1733420;28;20316;-76
2023/08/13 04:12:28;;;;;;;0.00;0.00;;;;;;;;;;1732430;28;20654;-76
2023/08/13 04:13:21;;;;;;;0.00;0.00;;;;;;;;;;1733229;28;20238;-76
2023/08/13 04:14:13;;;;;;;0.00;0.00;;;;;;;;;;1733090;28;20226;-76
2023/08/13 04:15:04;;;;;;;0.00;0.00;;;;;;;;;;1733796;28;20721;-76
2023/08/13 04:15:55;;;;;;;0.00;0.00;;;;;;;;;;1730969;28;20824;-77
2023/08/13 04:16:47;;;;;;;0.00;0.00;;;;;;;;;;1733283;28;20199;-77
2023/08/13 04:17:38;;;;;;;0.00;0.00;;;;;;;;;;1732797;28;20317;-77
2023/08/13 04:18:30;;;;;;;0.00;0.00;;;;;;;;;;1733175;28;20319;-77
2023/08/13 04:19:21;;;;;;;0.00;0.00;;;;;;;;;;1732787;28;20262;-77
2023/08/13 04:20:13;;;;;;;0.00;0.00;;;;;;;;;;1733914;28;20286;-77
2023/08/13 04:21:04;;;;;;;0.00;0.00;;;;;;;;;;1732442;28;20331;-76
2023/08/13 04:21:55;;;;;;;0.00;0.00;;;;;;;;;;1732900;28;20568;-76
2023/08/13 04:22:47;;;;;;;0.00;0.00;;;;;;;;;;1732995;28;20219;-76
2023/08/13 04:23:38;;;;;;;0.00;0.00;;;;;;;;;;1732753;28;20678;-76
2023/08/13 04:24:30;;;;;;;0.00;0.00;;;;;;;;;;1733217;28;20242;-76
2023/08/13 04:25:21;;;;;;;0.00;0.00;;;;;;;;;;1731473;28;20276;-76
2023/08/13 04:26:13;;;;;;;0.00;0.00;;;;;;;;;;1733140;28;20207;-76
2023/08/13 04:27:05;;;;;;;0.00;0.00;;;;;;;;;;1732661;28;20203;-76
2023/08/13 04:27:57;;;;;;;0.00;0.00;;;;;;;;;;1733409;28;20521;-76
2023/08/13 04:28:49;;;;;;;0.00;0.00;;;;;;;;;;1732565;28;20242;-76
2023/08/13 04:29:41;;;;;;;0.00;0.00;;;;;;;;;;1733071;28;20242;-76
2023/08/13 04:30:32;;;;;;;0.00;0.00;;;;;;;;;;1731975;28;20688;-77
2023/08/13 04:31:24;;;;;;;0.00;0.00;;;;;;;;;;1732927;28;20227;-77
2023/08/13 04:32:15;;;;;;;0.00;0.00;;;;;;;;;;1732657;28;20247;-77
2023/08/13 04:33:07;;;;;;;0.00;0.00;;;;;;;;;;1733196;28;20918;-77
2023/08/13 04:33:58;;;;;;;0.00;0.00;;;;;;;;;;1730246;28;20701;-77
2023/08/13 04:34:50;;;;;;;0.00;0.00;;;;;;;;;;1732931;28;20206;-78
2023/08/13 04:35:42;;;;;;;0.00;0.00;;;;;;;;;;1732245;28;20235;-77
2023/08/13 04:36:36;;;;;;;0.00;0.00;;;;;;;;;;1733223;28;20208;-76
2023/08/13 04:37:28;;;;;;;0.00;0.00;;;;;;;;;;1732509;28;20829;-76
2023/08/13 04:38:19;;;;;;;0.00;0.00;;;;;;;;;;1738692;28;20580;-76
2023/08/13 04:39:11;;;;;;;0.00;0.00;;;;;;;;;;1732524;28;20311;-76
2023/08/13 04:40:05;;;;;;;0.00;0.00;;;;;;;;;;1733510;28;20652;-76
2023/08/13 04:40:56;;;;;;;0.00;0.00;;;;;;;;;;1731348;28;20262;-76
2023/08/13 04:41:48;;;;;;;0.00;0.00;;;;;;;;;;1732742;28;20195;-76
2023/08/13 04:42:41;;;;;;;0.00;0.00;;;;;;;;;;1732451;28;20339;-76
2023/08/13 04:43:33;;;;;;;0.00;0.00;;;;;;;;;;1732582;28;20200;-76
2023/08/13 04:44:25;;;;;;;0.00;0.00;;;;;;;;;;1732039;28;20250;-76
2023/08/13 04:45:16;;;;;;;0.00;0.00;;;;;;;;;;1732119;28;20669;-76
2023/08/13 04:46:08;;;;;;;0.00;0.00;;;;;;;;;;1732524;28;20307;-77
2023/08/13 04:46:59;;;;;;;0.00;0.00;;;;;;;;;;1727595;28;20267;-77
2023/08/13 04:47:50;;;;;;;0.00;0.00;;;;;;;;;;1733915;28;20294;-77
2023/08/13 04:48:43;;;;;;;0.00;0.00;;;;;;;;;;1732579;28;20519;-76
2023/08/13 04:49:34;;;;;;;0.00;0.00;;;;;;;;;;1733319;28;20246;-77
2023/08/13 04:50:26;;;;;;;0.00;0.00;;;;;;;;;;1731361;28;20231;-77
2023/08/13 04:51:19;;;;;;;0.00;0.00;;;;;;;;;;1733273;28;20204;-77
2023/08/13 04:52:11;;;;;;;0.00;0.00;;;;;;;;;;1732036;28;20203;-77
2023/08/13 04:53:02;;;;;;;0.00;0.00;;;;;;;;;;1733168;28;20300;-77
2023/08/13 04:53:53;;;;;;;0.00;0.00;;;;;;;;;;1732677;28;20207;-78
2023/08/13 04:54:46;;;;;;;0.00;0.00;;;;;;;;;;1733283;28;20657;-78
2023/08/13 04:55:37;;;;;;;0.00;0.00;;;;;;;;;;1731771;28;20293;-78
2023/08/13 04:56:28;;;;;;;0.00;0.00;;;;;;;;;;1732860;28;20644;-78
2023/08/13 04:57:20;;;;;;;0.00;0.00;;;;;;;;;;1732462;28;20214;-77
2023/08/13 04:58:11;;;;;;;0.00;0.00;;;;;;;;;;1732936;28;20204;-77
2023/08/13 04:59:04;;;;;;;0.00;0.00;;;;;;;;;;1732740;28;20706;-78
2023/08/13 04:59:56;;;;;;;0.00;0.00;;;;;;;;;;1733163;28;20218;-78
2023/08/13 05:00:48;;;;;;;0.00;0.00;;;;;;;;;;1731142;28;20590;-77
2023/08/13 05:01:39;;;;;;;0.00;0.00;;;;;;;;;;1732974;28;20716;-77
2023/08/13 05:02:30;;;;;;;0.00;0.00;;;;;;;;;;1732093;28;20242;-77
2023/08/13 05:03:22;;;;;;;0.00;0.00;;;;;;;;;;1733107;28;20373;-77
2023/08/13 05:04:13;;;;;;;0.00;0.00;;;;;;;;;;1732144;28;20289;-77
2023/08/13 05:05:05;;;;;;;0.00;0.00;;;;;;;;;;1733592;28;20230;-77
2023/08/13 05:05:57;;;;;;;0.00;0.00;;;;;;;;;;1731478;28;20682;-77
2023/08/13 05:06:48;;;;;;;0.00;0.00;;;;;;;;;;1733018;28;20717;-77
2023/08/13 05:07:40;;;;;;;0.00;0.00;;;;;;;;;;1732568;28;20210;-77
2023/08/13 05:08:31;;;;;;;0.00;0.00;;;;;;;;;;1732698;28;20362;-78
2023/08/13 05:09:22;;;;;;;0.00;0.00;;;;;;;;;;1732411;28;20207;-78
2023/08/13 05:10:14;;;;;;;0.00;0.00;;;;;;;;;;1732303;28;20301;-77
2023/08/13 05:11:05;;;;;;;0.00;0.00;;;;;;;;;;1732383;28;20243;-77